createdAt,value
2023-10-19T00:00:46.815Z,100.00
2023-10-19T00:01:48.618Z,100.00
2023-10-19T00:02:55.238Z,100.00
2023-10-19T00:04:00.344Z,100.00
2023-10-19T00:05:02.119Z,100.00
2023-10-19T00:06:03.929Z,100.00
2023-10-19T00:07:07.859Z,100.00
2023-10-19T00:08:22.108Z,100.00
2023-10-19T00:09:23.978Z,100.00
2023-10-19T00:10:30.079Z,100.00
2023-10-19T00:11:32.512Z,100.00
2023-10-19T00:12:34.110Z,100.00
2023-10-19T00:13:37.215Z,100.00
2023-10-19T00:14:38.924Z,99.26
2023-10-19T00:15:54.816Z,99.13
2023-10-19T00:17:01.767Z,99.02
2023-10-19T00:18:18.833Z,99.95
2023-10-19T00:19:21.905Z,99.98
2023-10-19T00:20:58.730Z,99.91
2023-10-19T00:22:09.561Z,100.00
2023-10-19T00:23:11.249Z,100.00
2023-10-19T00:24:17.969Z,100.00
2023-10-19T00:25:19.737Z,100.00
2023-10-19T00:26:21.577Z,100.00
2023-10-19T00:27:24.591Z,100.00
2023-10-19T00:28:28.415Z,100.00
2023-10-19T00:29:34.044Z,100.00
2023-10-19T00:30:38.509Z,100.00
2023-10-19T00:31:42.153Z,100.00
2023-10-19T00:32:43.827Z,100.00
2023-10-19T00:33:46.587Z,100.00
2023-10-19T00:34:54.892Z,100.00
2023-10-19T00:36:07.533Z,100.00
2023-10-19T00:37:09.067Z,100.00
2023-10-19T00:38:39.640Z,100.00
2023-10-19T00:39:44.967Z,100.00
2023-10-19T00:41:08.084Z,100.00
2023-10-19T00:42:09.861Z,100.00
2023-10-19T00:43:13.368Z,100.00
2023-10-19T00:44:37.028Z,100.00
2023-10-19T00:45:41.309Z,100.00
2023-10-19T00:46:43.040Z,100.00
2023-10-19T00:47:44.746Z,100.00
2023-10-19T00:48:54.582Z,100.00
2023-10-19T00:49:56.435Z,100.00
2023-10-19T00:51:08.285Z,100.00
2023-10-19T00:52:13.062Z,100.00
2023-10-19T00:53:15.572Z,100.00
2023-10-19T00:54:28.277Z,100.00
2023-10-19T00:55:30.114Z,100.00
2023-10-19T00:56:34.031Z,100.00
2023-10-19T00:57:37.651Z,100.00
2023-10-19T00:58:42.475Z,100.00
2023-10-19T00:59:44.851Z,100.00
2023-10-19T01:00:46.514Z,100.00
2023-10-19T01:01:54.939Z,100.00
2023-10-19T01:03:01.396Z,100.00
2023-10-19T01:04:05.446Z,100.00
2023-10-19T01:05:07.572Z,100.00
2023-10-19T01:06:13.638Z,100.00
2023-10-19T01:07:23.227Z,100.00
2023-10-19T01:08:26.456Z,100.00
2023-10-19T01:09:29.680Z,100.00
2023-10-19T01:10:33.065Z,99.93
2023-10-19T01:11:36.178Z,99.72
2023-10-19T01:12:40.708Z,98.65
2023-10-19T01:13:46.024Z,98.51
2023-10-19T01:15:09.089Z,98.18
2023-10-19T01:16:17.226Z,97.31
2023-10-19T01:17:19.598Z,96.46
2023-10-19T01:18:21.195Z,97.07
2023-10-19T01:19:24.528Z,96.35
2023-10-19T01:20:30.667Z,96.90
2023-10-19T01:21:39.168Z,97.60
2023-10-19T01:22:50.817Z,96.55
2023-10-19T01:23:53.840Z,96.86
2023-10-19T01:24:56.740Z,96.64
2023-10-19T01:26:00.039Z,95.97
2023-10-19T01:27:01.782Z,96.16
2023-10-19T01:28:08.899Z,96.12
2023-10-19T01:29:18.805Z,96.29
2023-10-19T01:30:20.365Z,96.25
2023-10-19T01:31:45.830Z,95.60
2023-10-19T01:32:47.532Z,94.90
2023-10-19T01:33:50.454Z,95.13
2023-10-19T01:34:52.048Z,95.71
2023-10-19T01:36:12.104Z,95.03
2023-10-19T01:37:13.973Z,96.39
2023-10-19T01:38:16.546Z,96.48
2023-10-19T01:39:20.011Z,95.94
2023-10-19T01:40:22.242Z,96.75
2023-10-19T01:41:27.460Z,97.48
2023-10-19T01:42:29.095Z,98.15
2023-10-19T01:43:34.036Z,98.52
2023-10-19T01:44:37.454Z,99.90
2023-10-19T01:45:39.087Z,100.00
2023-10-19T01:46:41.264Z,100.00
2023-10-19T01:47:44.132Z,100.00
2023-10-19T01:48:45.850Z,100.00
2023-10-19T01:49:53.444Z,100.00
2023-10-19T01:50:55.120Z,100.00
2023-10-19T01:51:57.454Z,100.00
2023-10-19T01:52:59.662Z,100.00
2023-10-19T01:54:04.275Z,100.00
2023-10-19T01:55:10.250Z,100.00
2023-10-19T01:56:17.839Z,100.00
2023-10-19T01:57:19.589Z,100.00
2023-10-19T01:58:21.208Z,100.00
2023-10-19T01:59:28.594Z,100.00
2023-10-19T02:00:30.237Z,100.00
2023-10-19T02:01:33.525Z,100.00
2023-10-19T02:02:36.630Z,100.00
2023-10-19T02:03:39.095Z,100.00
2023-10-19T02:04:42.139Z,100.00
2023-10-19T02:05:44.558Z,100.00
2023-10-19T02:06:49.499Z,100.00
2023-10-19T02:07:51.210Z,100.00
2023-10-19T02:08:57.351Z,100.00
2023-10-19T02:09:59.159Z,100.00
2023-10-19T02:11:04.112Z,100.00
2023-10-19T02:12:07.859Z,100.00
2023-10-19T02:13:09.852Z,100.00
2023-10-19T02:14:17.181Z,100.00
2023-10-19T02:15:18.813Z,100.00
2023-10-19T02:16:24.107Z,100.00
2023-10-19T02:17:26.325Z,100.00
2023-10-19T02:18:27.991Z,100.00
2023-10-19T02:19:30.803Z,100.00
2023-10-19T02:20:40.470Z,100.00
2023-10-19T02:21:43.623Z,100.00
2023-10-19T02:22:45.329Z,100.00
2023-10-19T02:23:46.956Z,100.00
2023-10-19T02:24:48.584Z,100.00
2023-10-19T02:25:50.970Z,100.00
2023-10-19T02:26:56.573Z,100.00
2023-10-19T02:27:58.170Z,100.00
2023-10-19T02:29:00.009Z,100.00
2023-10-19T02:30:02.227Z,100.00
2023-10-19T02:31:20.192Z,100.00
2023-10-19T02:32:22.124Z,100.00
2023-10-19T02:33:23.854Z,100.00
2023-10-19T02:34:25.633Z,100.00
2023-10-19T02:35:28.807Z,100.00
2023-10-19T02:36:32.003Z,100.00
2023-10-19T02:37:33.721Z,100.00
2023-10-19T02:38:35.338Z,100.00
2023-10-19T02:39:36.975Z,100.00
2023-10-19T02:40:42.060Z,100.00
2023-10-19T02:41:51.441Z,99.97
2023-10-19T02:42:54.725Z,99.38
2023-10-19T02:44:03.462Z,99.07
2023-10-19T02:45:06.338Z,98.55
2023-10-19T02:46:08.630Z,99.05
2023-10-19T02:47:10.640Z,98.02
2023-10-19T02:48:14.042Z,98.44
2023-10-19T02:49:19.771Z,97.79
2023-10-19T02:50:24.853Z,98.01
2023-10-19T02:51:27.232Z,96.85
2023-10-19T02:52:28.819Z,97.47
2023-10-19T02:53:30.581Z,97.79
2023-10-19T02:54:36.120Z,98.32
2023-10-19T02:55:38.094Z,97.72
2023-10-19T02:56:40.121Z,97.51
2023-10-19T02:57:47.813Z,96.97
2023-10-19T02:58:52.363Z,95.69
2023-10-19T02:59:53.977Z,96.12
2023-10-19T03:00:56.341Z,96.26
2023-10-19T03:02:08.508Z,96.35
2023-10-19T03:03:10.442Z,96.44
2023-10-19T03:04:13.622Z,96.55
2023-10-19T03:05:15.842Z,97.15
2023-10-19T03:06:23.928Z,97.32
2023-10-19T03:07:25.621Z,96.04
2023-10-19T03:08:27.882Z,96.24
2023-10-19T03:09:29.610Z,96.71
2023-10-19T03:10:43.529Z,96.04
2023-10-19T03:11:45.656Z,97.22
2023-10-19T03:12:48.211Z,96.69
2023-10-19T03:13:51.485Z,95.77
2023-10-19T03:14:53.193Z,97.60
2023-10-19T03:15:54.763Z,98.83
2023-10-19T03:17:05.427Z,98.88
2023-10-19T03:18:07.225Z,98.50
2023-10-19T03:19:08.924Z,98.66
2023-10-19T03:20:13.940Z,99.62
2023-10-19T03:21:15.522Z,98.32
2023-10-19T03:22:18.345Z,98.53
2023-10-19T03:23:21.834Z,98.67
2023-10-19T03:24:42.272Z,98.15
2023-10-19T03:26:12.938Z,97.88
2023-10-19T03:27:25.209Z,97.37
2023-10-19T03:28:27.610Z,97.96
2023-10-19T03:29:39.749Z,97.84
2023-10-19T03:30:41.453Z,97.33
2023-10-19T03:31:46.698Z,96.77
2023-10-19T03:32:48.481Z,97.50
2023-10-19T03:33:56.863Z,97.03
2023-10-19T03:35:00.479Z,96.22
2023-10-19T03:36:02.189Z,96.55
2023-10-19T03:37:07.658Z,96.65
2023-10-19T03:38:15.937Z,96.22
2023-10-19T03:39:19.044Z,96.46
2023-10-19T03:40:30.806Z,96.39
2023-10-19T03:41:37.019Z,96.41
2023-10-19T03:42:48.069Z,96.49
2023-10-19T03:43:50.870Z,96.29
2023-10-19T03:44:56.193Z,95.54
2023-10-19T03:46:00.246Z,95.92
2023-10-19T03:47:12.981Z,96.57
2023-10-19T03:48:17.367Z,96.93
2023-10-19T03:49:21.010Z,96.62
2023-10-19T03:50:22.781Z,96.35
2023-10-19T03:51:26.253Z,96.67
2023-10-19T03:52:31.648Z,96.89
2023-10-19T03:53:34.047Z,97.42
2023-10-19T03:54:41.319Z,96.85
2023-10-19T03:55:44.850Z,96.53
2023-10-19T03:56:46.603Z,96.97
2023-10-19T03:57:51.599Z,96.34
2023-10-19T03:58:53.405Z,96.18
2023-10-19T03:59:57.786Z,95.97
2023-10-19T04:01:06.215Z,95.43
2023-10-19T04:02:14.071Z,96.24
2023-10-19T04:03:18.386Z,95.30
2023-10-19T04:04:21.613Z,95.99
2023-10-19T04:05:27.702Z,95.02
2023-10-19T04:06:29.367Z,95.00
2023-10-19T04:07:34.270Z,94.68
2023-10-19T04:08:36.479Z,94.79
2023-10-19T04:09:57.987Z,94.93
2023-10-19T04:13:35.785Z,94.63
2023-10-19T04:14:44.176Z,94.34
2023-10-19T04:15:46.922Z,95.18
2023-10-19T04:16:50.276Z,94.27
2023-10-19T04:17:51.959Z,94.34
2023-10-19T04:18:55.687Z,93.49
2023-10-19T04:19:57.340Z,93.80
2023-10-19T04:20:59.614Z,94.07
2023-10-19T04:22:01.281Z,93.99
2023-10-19T04:23:07.998Z,93.43
2023-10-19T04:24:10.728Z,93.79
2023-10-19T04:25:13.911Z,93.86
2023-10-19T04:26:19.701Z,93.32
2023-10-19T04:27:24.584Z,92.81
2023-10-19T04:28:32.537Z,93.09
2023-10-19T04:29:34.474Z,93.28
2023-10-19T04:30:38.247Z,92.66
2023-10-19T04:31:55.925Z,93.71
2023-10-19T04:32:59.140Z,94.05
2023-10-19T04:34:10.628Z,94.35
2023-10-19T04:35:22.554Z,94.35
2023-10-19T04:36:24.319Z,95.38
2023-10-19T04:37:26.056Z,95.35
2023-10-19T04:38:34.411Z,96.08
2023-10-19T04:39:37.376Z,95.91
2023-10-19T04:40:39.189Z,95.77
2023-10-19T04:41:42.473Z,96.15
2023-10-19T04:42:45.328Z,96.34
2023-10-19T04:43:51.430Z,96.72
2023-10-19T04:44:53.433Z,96.07
2023-10-19T04:45:55.113Z,95.87
2023-10-19T04:46:56.868Z,96.09
2023-10-19T04:47:58.707Z,97.15
2023-10-19T04:49:00.751Z,99.03
2023-10-19T04:50:07.031Z,98.76
2023-10-19T04:51:12.671Z,99.13
2023-10-19T04:52:14.636Z,98.91
2023-10-19T04:53:16.245Z,98.29
2023-10-19T04:54:18.581Z,99.68
2023-10-19T04:55:20.343Z,100.00
2023-10-19T04:56:22.804Z,100.00
2023-10-19T04:57:24.389Z,100.00
2023-10-19T04:58:26.003Z,99.43
2023-10-19T04:59:27.625Z,100.00
2023-10-19T05:00:29.400Z,99.62
2023-10-19T05:01:31.142Z,99.75
2023-10-19T05:02:32.855Z,99.96
2023-10-19T05:03:35.623Z,99.48
2023-10-19T05:04:37.410Z,99.89
2023-10-19T05:05:39.722Z,100.00
2023-10-19T05:06:41.317Z,100.00
2023-10-19T05:07:43.803Z,100.00
2023-10-19T05:08:45.475Z,98.62
2023-10-19T05:09:47.561Z,99.17
2023-10-19T05:10:49.736Z,99.45
2023-10-19T05:11:54.544Z,98.39
2023-10-19T05:12:56.340Z,98.86
2023-10-19T05:13:58.022Z,98.26
2023-10-19T05:14:59.877Z,98.52
2023-10-19T05:16:01.466Z,97.56
2023-10-19T05:17:06.611Z,97.07
2023-10-19T05:18:08.375Z,96.39
2023-10-19T05:19:10.993Z,96.26
2023-10-19T05:20:12.956Z,96.66
2023-10-19T05:21:14.572Z,96.33
2023-10-19T05:22:17.237Z,96.40
2023-10-19T05:23:21.118Z,97.45
2023-10-19T05:24:22.836Z,96.23
2023-10-19T05:25:24.884Z,96.08
2023-10-19T05:26:27.248Z,96.44
2023-10-19T05:27:28.775Z,97.47
2023-10-19T05:28:31.082Z,97.53
2023-10-19T05:29:34.413Z,97.27
2023-10-19T05:30:36.802Z,97.37
2023-10-19T05:31:38.476Z,96.30
2023-10-19T05:32:40.220Z,96.97
2023-10-19T05:33:42.039Z,97.19
2023-10-19T05:34:43.690Z,96.21
2023-10-19T05:35:45.280Z,96.92
2023-10-19T05:36:49.916Z,96.22
2023-10-19T05:37:51.802Z,96.46
2023-10-19T05:38:53.426Z,96.11
2023-10-19T05:39:55.033Z,95.71
2023-10-19T05:40:58.570Z,95.93
2023-10-19T05:42:02.552Z,95.13
2023-10-19T05:43:05.210Z,95.73
2023-10-19T05:44:07.015Z,95.00
2023-10-19T05:45:14.304Z,94.55
2023-10-19T05:46:19.840Z,94.68
2023-10-19T05:47:21.561Z,95.05
2023-10-19T05:48:24.466Z,94.91
2023-10-19T05:49:26.176Z,94.70
2023-10-19T05:50:29.655Z,94.65
2023-10-19T05:51:31.724Z,94.58
2023-10-19T05:52:33.404Z,93.78
2023-10-19T05:53:35.070Z,93.04
2023-10-19T05:54:37.778Z,93.18
2023-10-19T05:55:41.012Z,93.54
2023-10-19T05:56:42.683Z,93.18
2023-10-19T05:57:45.510Z,92.86
2023-10-19T05:58:49.930Z,93.61
2023-10-19T05:59:51.569Z,93.11
2023-10-19T06:00:53.572Z,93.15
2023-10-19T06:01:55.627Z,93.23
2023-10-19T06:02:58.900Z,93.36
2023-10-19T06:04:00.621Z,92.68
2023-10-19T06:05:02.254Z,92.81
2023-10-19T06:06:03.992Z,92.72
2023-10-19T06:07:05.652Z,92.35
2023-10-19T06:08:07.294Z,92.77
2023-10-19T06:09:12.304Z,91.43
2023-10-19T06:10:23.526Z,91.42
2023-10-19T06:11:29.279Z,90.99
2023-10-19T06:12:32.358Z,91.19
2023-10-19T06:13:34.144Z,91.17
2023-10-19T06:14:35.779Z,90.75
2023-10-19T06:15:37.787Z,90.70
2023-10-19T06:16:39.536Z,90.33
2023-10-19T06:17:42.245Z,90.52
2023-10-19T06:18:44.981Z,90.45
2023-10-19T06:19:47.164Z,90.24
2023-10-19T06:20:51.683Z,90.07
2023-10-19T06:21:53.362Z,90.66
2023-10-19T06:22:57.439Z,90.98
2023-10-19T06:23:59.535Z,91.96
2023-10-19T06:25:01.175Z,92.65
2023-10-19T06:26:12.418Z,91.54
2023-10-19T06:27:14.088Z,91.14
2023-10-19T06:28:16.456Z,91.14
2023-10-19T06:29:18.041Z,91.38
2023-10-19T06:30:20.687Z,91.69
2023-10-19T06:31:22.412Z,90.95
2023-10-19T06:32:24.303Z,91.13
2023-10-19T06:33:26.100Z,91.82
2023-10-19T06:34:28.434Z,91.30
2023-10-19T06:35:33.025Z,91.14
2023-10-19T06:36:35.076Z,90.92
2023-10-19T06:37:36.871Z,90.95
2023-10-19T06:38:38.517Z,92.13
2023-10-19T06:39:42.350Z,93.98
2023-10-19T06:40:44.038Z,97.22
2023-10-19T06:41:46.224Z,96.87
2023-10-19T06:42:48.527Z,95.82
2023-10-19T06:43:50.277Z,96.12
2023-10-19T06:44:54.523Z,96.72
2023-10-19T06:45:56.891Z,97.20
2023-10-19T06:46:58.598Z,98.16
2023-10-19T06:48:05.105Z,98.53
2023-10-19T06:49:07.129Z,99.13
2023-10-19T06:50:11.078Z,99.85
2023-10-19T06:51:12.993Z,99.60
2023-10-19T06:52:14.629Z,99.05
2023-10-19T06:53:16.310Z,99.42
2023-10-19T06:54:17.874Z,98.95
2023-10-19T06:55:23.897Z,95.75
2023-10-19T06:56:25.955Z,94.43
2023-10-19T06:57:28.626Z,94.00
2023-10-19T06:58:30.705Z,93.50
2023-10-19T06:59:34.304Z,93.78
2023-10-19T07:00:36.073Z,92.21
2023-10-19T07:01:37.804Z,89.61
2023-10-19T07:02:39.430Z,89.54
2023-10-19T07:03:41.141Z,88.96
2023-10-19T07:04:43.276Z,87.88
2023-10-19T07:05:44.869Z,86.33
2023-10-19T07:06:48.751Z,87.01
2023-10-19T07:07:57.411Z,87.55
2023-10-19T07:08:59.424Z,85.28
2023-10-19T07:10:00.974Z,85.39
2023-10-19T07:11:02.661Z,83.67
2023-10-19T07:12:04.709Z,83.60
2023-10-19T07:13:06.318Z,82.92
2023-10-19T07:14:08.947Z,82.86
2023-10-19T07:15:20.852Z,83.79
2023-10-19T07:16:22.520Z,82.99
2023-10-19T07:17:24.201Z,82.43
2023-10-19T07:18:25.956Z,81.74
2023-10-19T07:19:27.591Z,81.80
2023-10-19T07:20:37.265Z,81.17
2023-10-19T07:21:40.400Z,82.81
2023-10-19T07:22:43.687Z,82.38
2023-10-19T07:23:47.006Z,82.11
2023-10-19T07:24:48.578Z,82.66
2023-10-19T07:25:55.769Z,83.66
2023-10-19T07:27:10.381Z,84.17
2023-10-19T07:28:17.099Z,82.87
2023-10-19T07:29:20.230Z,83.50
2023-10-19T07:30:23.510Z,85.12
2023-10-19T07:31:25.184Z,85.99
2023-10-19T07:32:26.855Z,85.11
2023-10-19T07:33:29.306Z,83.33
2023-10-19T07:34:35.940Z,84.33
2023-10-19T07:35:43.760Z,84.11
2023-10-19T07:36:45.459Z,85.60
2023-10-19T07:37:49.520Z,85.31
2023-10-19T07:38:52.923Z,85.74
2023-10-19T07:39:58.171Z,86.44
2023-10-19T07:40:59.969Z,85.86
2023-10-19T07:42:01.555Z,84.85
2023-10-19T07:43:05.020Z,84.92
2023-10-19T07:44:06.817Z,84.85
2023-10-19T07:45:12.730Z,83.99
2023-10-19T07:46:14.577Z,84.35
2023-10-19T07:47:16.295Z,82.49
2023-10-19T07:48:18.311Z,82.42
2023-10-19T07:49:20.679Z,81.57
2023-10-19T07:50:23.939Z,82.50
2023-10-19T07:51:26.201Z,82.72
2023-10-19T07:52:28.066Z,80.07
2023-10-19T07:53:29.632Z,80.60
2023-10-19T07:54:31.793Z,79.98
2023-10-19T07:55:33.854Z,80.67
2023-10-19T07:56:35.652Z,80.15
2023-10-19T07:57:37.899Z,81.14
2023-10-19T07:58:41.180Z,79.73
2023-10-19T07:59:43.973Z,77.47
2023-10-19T08:00:48.034Z,78.35
2023-10-19T08:01:49.780Z,80.47
2023-10-19T08:02:52.780Z,79.46
2023-10-19T08:03:54.464Z,78.41
2023-10-19T08:04:57.178Z,80.52
2023-10-19T08:05:58.964Z,80.58
2023-10-19T08:07:00.579Z,80.13
2023-10-19T08:08:05.069Z,79.36
2023-10-19T08:09:07.493Z,78.94
2023-10-19T08:10:11.753Z,77.00
2023-10-19T08:11:13.677Z,78.71
2023-10-19T08:12:15.346Z,79.83
2023-10-19T08:13:16.903Z,77.60
2023-10-19T08:14:18.539Z,75.65
2023-10-19T08:15:21.598Z,77.52
2023-10-19T08:16:24.423Z,77.24
2023-10-19T08:17:26.199Z,78.42
2023-10-19T08:18:28.096Z,78.79
2023-10-19T08:19:32.245Z,78.42
2023-10-19T08:20:37.884Z,78.04
2023-10-19T08:21:39.510Z,78.54
2023-10-19T08:22:41.098Z,79.33
2023-10-19T08:23:43.229Z,79.38
2023-10-19T08:24:46.812Z,80.05
2023-10-19T08:25:56.487Z,78.36
2023-10-19T08:26:59.108Z,79.35
2023-10-19T08:28:00.703Z,78.53
2023-10-19T08:29:02.365Z,79.68
2023-10-19T08:30:04.922Z,80.64
2023-10-19T08:31:11.402Z,80.73
2023-10-19T08:32:13.118Z,80.45
2023-10-19T08:33:15.233Z,80.28
2023-10-19T08:34:17.062Z,78.98
2023-10-19T08:35:22.075Z,79.98
2023-10-19T08:36:23.721Z,80.40
2023-10-19T08:37:27.117Z,80.99
2023-10-19T08:38:29.587Z,80.03
2023-10-19T08:39:37.202Z,78.92
2023-10-19T08:40:39.852Z,78.72
2023-10-19T08:41:42.241Z,78.85
2023-10-19T08:42:44.370Z,77.54
2023-10-19T08:43:46.582Z,76.88
2023-10-19T08:44:48.291Z,78.06
2023-10-19T08:45:50.527Z,78.57
2023-10-19T08:46:53.102Z,78.58
2023-10-19T08:48:00.806Z,77.88
2023-10-19T08:49:02.632Z,77.96
2023-10-19T08:50:06.422Z,78.33
2023-10-19T08:51:12.079Z,76.36
2023-10-19T08:52:16.253Z,76.53
2023-10-19T08:53:20.900Z,75.47
2023-10-19T08:54:23.038Z,74.69
2023-10-19T08:55:37.381Z,75.93
2023-10-19T08:56:48.599Z,75.05
2023-10-19T08:57:51.053Z,74.99
2023-10-19T08:58:52.958Z,74.13
2023-10-19T08:59:57.709Z,74.10
2023-10-19T09:01:07.396Z,75.85
2023-10-19T09:02:09.070Z,74.59
2023-10-19T09:03:14.983Z,74.79
2023-10-19T09:04:17.597Z,73.56
2023-10-19T09:05:29.198Z,73.74
2023-10-19T09:06:32.096Z,74.77
2023-10-19T09:07:35.538Z,74.49
2023-10-19T09:08:39.804Z,73.84
2023-10-19T09:09:41.862Z,73.99
2023-10-19T09:10:47.017Z,73.14
2023-10-19T09:11:49.284Z,73.59
2023-10-19T09:13:06.107Z,73.27
2023-10-19T09:14:07.924Z,73.01
2023-10-19T09:15:24.232Z,73.83
2023-10-19T09:16:27.858Z,73.99
2023-10-19T09:17:30.599Z,71.09
2023-10-19T09:18:32.250Z,72.79
2023-10-19T09:19:48.542Z,70.12
2023-10-19T09:20:57.136Z,69.88
2023-10-19T09:22:00.026Z,69.38
2023-10-19T09:23:03.483Z,70.08
2023-10-19T09:24:05.689Z,69.98
2023-10-19T09:25:07.981Z,70.38
2023-10-19T09:26:09.726Z,71.79
2023-10-19T09:27:11.687Z,70.30
2023-10-19T09:28:14.947Z,69.86
2023-10-19T09:29:19.929Z,69.58
2023-10-19T09:30:24.196Z,69.43
2023-10-19T09:31:26.370Z,68.98
2023-10-19T09:32:30.357Z,70.53
2023-10-19T09:33:35.492Z,68.69
2023-10-19T09:34:37.605Z,68.12
2023-10-19T09:35:44.354Z,67.99
2023-10-19T09:36:46.106Z,68.68
2023-10-19T09:37:48.948Z,67.89
2023-10-19T09:38:52.482Z,68.70
2023-10-19T09:39:54.373Z,68.57
2023-10-19T09:40:57.409Z,67.96
2023-10-19T09:42:00.469Z,66.68
2023-10-19T09:43:09.668Z,67.27
2023-10-19T09:44:14.836Z,68.57
2023-10-19T09:45:20.758Z,67.66
2023-10-19T09:46:25.324Z,67.60
2023-10-19T09:47:41.072Z,67.07
2023-10-19T09:48:46.933Z,68.16
2023-10-19T09:49:51.318Z,69.84
2023-10-19T09:50:56.443Z,70.70
2023-10-19T09:52:08.817Z,69.97
2023-10-19T09:53:12.680Z,66.63
2023-10-19T09:54:19.937Z,66.39
2023-10-19T09:55:30.993Z,66.55
2023-10-19T09:56:39.694Z,67.42
2023-10-19T09:57:52.888Z,67.52
2023-10-19T09:58:59.481Z,67.85
2023-10-19T10:00:10.244Z,69.28
2023-10-19T10:01:14.670Z,67.75
2023-10-19T10:02:19.163Z,68.58
2023-10-19T10:03:44.419Z,67.13
2023-10-19T10:04:50.083Z,67.08
2023-10-19T10:05:51.893Z,67.51
2023-10-19T10:06:56.525Z,66.21
2023-10-19T10:08:19.948Z,65.77
2023-10-19T10:09:25.201Z,66.19
2023-10-19T10:10:27.243Z,66.78
2023-10-19T10:11:29.675Z,66.18
2023-10-19T10:12:31.545Z,64.98
2023-10-19T10:13:39.224Z,64.47
2023-10-19T10:14:55.809Z,64.57
2023-10-19T10:15:59.268Z,65.09
2023-10-19T10:17:04.974Z,64.63
2023-10-19T10:18:15.350Z,65.36
2023-10-19T10:19:21.748Z,63.64
2023-10-19T10:20:23.835Z,64.63
2023-10-19T10:21:25.709Z,64.61
2023-10-19T10:22:28.597Z,65.78
2023-10-19T10:23:33.904Z,66.14
2023-10-19T10:24:35.546Z,65.24
2023-10-19T10:25:38.140Z,65.09
2023-10-19T10:26:59.339Z,63.93
2023-10-19T10:28:04.402Z,65.55
2023-10-19T10:29:27.995Z,63.48
2023-10-19T10:30:29.607Z,63.56
2023-10-19T10:31:38.046Z,64.44
2023-10-19T10:32:51.576Z,64.54
2023-10-19T10:33:57.900Z,63.28
2023-10-19T10:35:03.346Z,62.49
2023-10-19T10:36:07.429Z,62.56
2023-10-19T10:37:12.114Z,64.08
2023-10-19T10:38:13.797Z,63.12
2023-10-19T10:39:17.934Z,63.16
2023-10-19T10:40:19.519Z,61.54
2023-10-19T10:41:33.111Z,59.54
2023-10-19T10:42:35.328Z,59.90
2023-10-19T10:43:56.858Z,61.63
2023-10-19T10:44:59.334Z,61.31
2023-10-19T10:46:08.697Z,62.14
2023-10-19T10:47:25.712Z,61.73
2023-10-19T10:48:27.751Z,62.15
2023-10-19T10:49:29.538Z,60.39
2023-10-19T10:50:31.501Z,60.39
2023-10-19T10:51:33.597Z,60.03
2023-10-19T10:52:37.060Z,61.26
2023-10-19T10:53:42.678Z,59.75
2023-10-19T10:54:44.310Z,60.09
2023-10-19T10:55:46.289Z,60.88
2023-10-19T10:56:47.979Z,59.66
2023-10-19T10:57:51.962Z,59.01
2023-10-19T10:58:56.230Z,60.48
2023-10-19T11:00:16.787Z,58.96
2023-10-19T11:01:32.200Z,58.97
2023-10-19T11:02:34.184Z,59.19
2023-10-19T11:03:35.897Z,59.58
2023-10-19T11:04:45.645Z,60.37
2023-10-19T11:05:47.702Z,59.30
2023-10-19T11:06:50.455Z,59.88
2023-10-19T11:08:14.879Z,59.76
2023-10-19T11:09:19.721Z,60.27
2023-10-19T11:10:28.914Z,61.38
2023-10-19T11:11:30.531Z,62.95
2023-10-19T11:12:32.141Z,62.14
2023-10-19T11:13:36.050Z,62.82
2023-10-19T11:14:37.618Z,62.23
2023-10-19T11:15:41.090Z,62.40
2023-10-19T11:16:44.639Z,61.77
2023-10-19T11:17:48.148Z,60.81
2023-10-19T11:18:51.342Z,62.08
2023-10-19T11:19:53.001Z,61.57
2023-10-19T11:21:00.962Z,61.68
2023-10-19T11:22:03.885Z,62.26
2023-10-19T11:23:06.463Z,61.68
2023-10-19T11:24:08.764Z,61.96
2023-10-19T11:25:22.340Z,62.05
2023-10-19T11:26:25.765Z,61.42
2023-10-19T11:27:28.838Z,63.39
2023-10-19T11:28:31.392Z,62.91
2023-10-19T11:29:33.042Z,62.81
2023-10-19T11:30:34.744Z,61.55
2023-10-19T11:31:40.765Z,61.88
2023-10-19T11:32:42.612Z,62.47
2023-10-19T11:33:46.056Z,62.34
2023-10-19T11:34:48.931Z,61.76
2023-10-19T11:35:50.552Z,63.11
2023-10-19T11:36:58.093Z,62.59
2023-10-19T11:38:01.964Z,61.85
2023-10-19T11:39:09.614Z,60.99
2023-10-19T11:40:13.171Z,61.04
2023-10-19T11:41:16.165Z,61.55
2023-10-19T11:42:22.278Z,61.86
2023-10-19T11:43:23.917Z,61.09
2023-10-19T11:44:25.587Z,62.16
2023-10-19T11:45:27.269Z,62.57
2023-10-19T11:46:30.726Z,62.68
2023-10-19T11:47:32.515Z,61.40
2023-10-19T11:48:37.809Z,60.70
2023-10-19T11:49:39.622Z,59.96
2023-10-19T11:50:41.422Z,60.70
2023-10-19T11:51:44.994Z,61.28
2023-10-19T11:52:47.273Z,61.64
2023-10-19T11:53:48.909Z,61.23
2023-10-19T11:54:50.585Z,62.90
2023-10-19T11:55:52.807Z,62.54
2023-10-19T11:56:55.524Z,61.14
2023-10-19T11:57:57.291Z,60.20
2023-10-19T11:58:59.062Z,61.79
2023-10-19T12:00:00.740Z,61.90
2023-10-19T12:01:14.933Z,61.21
2023-10-19T12:02:20.048Z,61.13
2023-10-19T12:03:22.096Z,61.63
2023-10-19T12:04:23.704Z,61.98
2023-10-19T12:05:25.929Z,60.00
2023-10-19T12:06:27.586Z,59.85
2023-10-19T12:07:29.193Z,60.17
2023-10-19T12:08:30.906Z,60.38
2023-10-19T12:09:34.101Z,59.56
2023-10-19T12:10:39.392Z,59.99
2023-10-19T12:11:41.524Z,59.71
2023-10-19T12:12:58.281Z,59.68
2023-10-19T12:14:05.357Z,59.12
2023-10-19T12:15:07.822Z,58.99
2023-10-19T12:16:09.857Z,57.81
2023-10-19T12:17:12.113Z,58.60
2023-10-19T12:18:15.284Z,58.79
2023-10-19T12:19:18.540Z,58.92
2023-10-19T12:20:23.285Z,59.00
2023-10-19T12:21:29.098Z,59.53
2023-10-19T12:22:33.812Z,58.00
2023-10-19T12:23:36.430Z,58.13
2023-10-19T12:24:38.284Z,58.17
2023-10-19T12:25:56.131Z,58.40
2023-10-19T12:27:01.720Z,58.93
2023-10-19T12:28:05.522Z,58.16
2023-10-19T12:29:10.888Z,57.45
2023-10-19T12:30:21.475Z,57.46
2023-10-19T12:31:24.581Z,57.89
2023-10-19T12:32:27.589Z,57.65
2023-10-19T12:33:29.587Z,57.98
2023-10-19T12:34:31.865Z,58.39
2023-10-19T12:35:53.899Z,58.56
2023-10-19T12:36:58.420Z,59.33
2023-10-19T12:38:00.202Z,59.43
2023-10-19T12:39:02.392Z,58.84
2023-10-19T12:40:24.371Z,58.32
2023-10-19T12:41:26.306Z,58.28
2023-10-19T12:42:28.983Z,57.95
2023-10-19T12:43:31.463Z,58.18
2023-10-19T12:44:40.319Z,58.68
2023-10-19T12:45:43.015Z,58.80
2023-10-19T12:46:44.717Z,59.03
2023-10-19T12:47:46.404Z,58.41
2023-10-19T12:48:48.211Z,58.60
2023-10-19T12:49:50.898Z,58.68
2023-10-19T12:50:52.566Z,58.93
2023-10-19T12:51:55.413Z,59.23
2023-10-19T12:52:57.310Z,58.17
2023-10-19T12:53:59.247Z,58.24
2023-10-19T12:55:04.128Z,58.08
2023-10-19T12:56:08.989Z,58.64
2023-10-19T12:57:11.013Z,59.22
2023-10-19T12:58:13.055Z,60.21
2023-10-19T12:59:18.721Z,60.59
2023-10-19T13:00:37.200Z,60.18
2023-10-19T13:01:38.957Z,59.42
2023-10-19T13:02:41.150Z,59.30
2023-10-19T13:03:46.612Z,59.73
2023-10-19T13:04:48.678Z,59.75
2023-10-19T13:05:50.928Z,59.96
2023-10-19T13:06:53.074Z,58.97
2023-10-19T13:07:59.421Z,59.63
2023-10-19T13:09:01.123Z,59.47
2023-10-19T13:10:03.245Z,59.76
2023-10-19T13:11:14.174Z,58.93
2023-10-19T13:12:24.611Z,59.15
2023-10-19T13:13:27.535Z,59.02
2023-10-19T13:14:29.337Z,59.33
2023-10-19T13:15:36.053Z,60.18
2023-10-19T13:16:37.821Z,60.25
2023-10-19T13:17:41.144Z,59.85
2023-10-19T13:18:43.023Z,60.44
2023-10-19T13:19:44.723Z,60.90
2023-10-19T13:20:49.985Z,60.67
2023-10-19T13:21:52.080Z,60.92
2023-10-19T13:22:54.154Z,61.47
2023-10-19T13:23:55.806Z,60.84
2023-10-19T13:24:57.352Z,61.13
2023-10-19T13:26:02.805Z,61.32
2023-10-19T13:27:04.485Z,61.63
2023-10-19T13:28:09.906Z,61.09
2023-10-19T13:29:11.724Z,61.21
2023-10-19T13:30:13.764Z,61.03
2023-10-19T13:31:16.343Z,61.10
2023-10-19T13:32:18.536Z,61.52
2023-10-19T13:33:25.375Z,60.94
2023-10-19T13:34:27.432Z,61.90
2023-10-19T13:35:29.023Z,62.37
2023-10-19T13:36:30.670Z,62.59
2023-10-19T13:37:33.897Z,62.74
2023-10-19T13:38:35.682Z,63.32
2023-10-19T13:39:37.281Z,63.39
2023-10-19T13:40:40.108Z,63.46
2023-10-19T13:41:42.002Z,63.84
2023-10-19T13:42:48.007Z,64.35
2023-10-19T13:43:50.061Z,64.02
2023-10-19T13:44:51.677Z,64.39
2023-10-19T13:45:54.472Z,65.01
2023-10-19T13:46:56.216Z,65.29
2023-10-19T13:47:57.972Z,65.59